sensor_id;sensor_type;location;lat;lon;timestamp;P1;durP1;ratioP1;P2;durP2;ratioP2
16516;SDS011;8371;52.272;9.746;2023-08-01T00:00:48;0.40;;;0.40;;
16516;SDS011;8371;52.272;9.746;2023-08-01T00:03:14;0.40;;;0.40;;
16516;SDS011;8371;52.272;9.746;2023-08-01T00:05:40;0.40;;;0.40;;
16516;SDS011;8371;52.272;9.746;2023-08-01T00:08:13;0.27;;;0.23;;
16516;SDS011;8371;52.272;9.746;2023-08-01T00:10:39;0.20;;;0.20;;
16516;SDS011;8371;52.272;9.746;2023-08-01T00:13:07;0.30;;;0.30;;
16516;SDS011;8371;52.272;9.746;2023-08-01T00:15:33;0.40;;;0.40;;
16516;SDS011;8371;52.272;9.746;2023-08-01T00:17:59;0.30;;;0.30;;
16516;SDS011;8371;52.272;9.746;2023-08-01T00:20:25;0.37;;;0.37;;
16516;SDS011;8371;52.272;9.746;2023-08-01T00:22:51;0.40;;;0.40;;
16516;SDS011;8371;52.272;9.746;2023-08-01T00:25:17;0.40;;;0.40;;
16516;SDS011;8371;52.272;9.746;2023-08-01T00:27:43;0.83;;;0.33;;
16516;SDS011;8371;52.272;9.746;2023-08-01T00:30:09;0.23;;;0.23;;
16516;SDS011;8371;52.272;9.746;2023-08-01T00:32:36;0.30;;;0.30;;
16516;SDS011;8371;52.272;9.746;2023-08-01T00:35:02;0.87;;;0.40;;
16516;SDS011;8371;52.272;9.746;2023-08-01T00:37:28;1.30;;;0.40;;
16516;SDS011;8371;52.272;9.746;2023-08-01T00:39:54;0.47;;;0.47;;
16516;SDS011;8371;52.272;9.746;2023-08-01T00:42:19;0.60;;;0.60;;
16516;SDS011;8371;52.272;9.746;2023-08-01T00:44:45;0.60;;;0.20;;
16516;SDS011;8371;52.272;9.746;2023-08-01T00:47:13;0.40;;;0.40;;
16516;SDS011;8371;52.272;9.746;2023-08-01T00:49:39;0.30;;;0.30;;
16516;SDS011;8371;52.272;9.746;2023-08-01T00:52:05;2.00;;;0.43;;
16516;SDS011;8371;52.272;9.746;2023-08-01T00:54:31;0.50;;;0.50;;
16516;SDS011;8371;52.272;9.746;2023-08-01T00:56:59;0.40;;;0.40;;
16516;SDS011;8371;52.272;9.746;2023-08-01T00:59:26;0.23;;;0.23;;
16516;SDS011;8371;52.272;9.746;2023-08-01T01:01:52;0.40;;;0.40;;
16516;SDS011;8371;52.272;9.746;2023-08-01T01:04:17;0.27;;;0.27;;
16516;SDS011;8371;52.272;9.746;2023-08-01T01:07:03;0.40;;;0.40;;
16516;SDS011;8371;52.272;9.746;2023-08-01T01:09:31;0.30;;;0.30;;
16516;SDS011;8371;52.272;9.746;2023-08-01T01:11:57;0.40;;;0.30;;
16516;SDS011;8371;52.272;9.746;2023-08-01T01:14:25;0.30;;;0.30;;
16516;SDS011;8371;52.272;9.746;2023-08-01T01:16:51;0.23;;;0.23;;
16516;SDS011;8371;52.272;9.746;2023-08-01T01:19:17;0.40;;;0.40;;
16516;SDS011;8371;52.272;9.746;2023-08-01T01:21:43;5.20;;;0.40;;
16516;SDS011;8371;52.272;9.746;2023-08-01T01:24:09;0.20;;;0.20;;
16516;SDS011;8371;52.272;9.746;2023-08-01T01:26:37;0.30;;;0.30;;
16516;SDS011;8371;52.272;9.746;2023-08-01T01:29:04;0.83;;;0.17;;
16516;SDS011;8371;52.272;9.746;2023-08-01T01:31:31;0.20;;;0.20;;
16516;SDS011;8371;52.272;9.746;2023-08-01T01:33:58;0.40;;;0.40;;
16516;SDS011;8371;52.272;9.746;2023-08-01T01:36:24;0.40;;;0.40;;
16516;SDS011;8371;52.272;9.746;2023-08-01T01:38:50;0.40;;;0.40;;
16516;SDS011;8371;52.272;9.746;2023-08-01T01:41:15;0.40;;;0.40;;
16516;SDS011;8371;52.272;9.746;2023-08-01T01:43:41;0.97;;;0.40;;
16516;SDS011;8371;52.272;9.746;2023-08-01T01:46:07;0.23;;;0.23;;
16516;SDS011;8371;52.272;9.746;2023-08-01T01:48:32;0.40;;;0.40;;
16516;SDS011;8371;52.272;9.746;2023-08-01T01:50:58;0.67;;;0.33;;
16516;SDS011;8371;52.272;9.746;2023-08-01T01:53:24;0.63;;;0.30;;
16516;SDS011;8371;52.272;9.746;2023-08-01T01:55:50;0.30;;;0.30;;
16516;SDS011;8371;52.272;9.746;2023-08-01T01:58:15;0.23;;;0.23;;
16516;SDS011;8371;52.272;9.746;2023-08-01T02:00:41;0.93;;;0.40;;
16516;SDS011;8371;52.272;9.746;2023-08-01T02:03:07;0.10;;;0.10;;
16516;SDS011;8371;52.272;9.746;2023-08-01T02:05:36;1.17;;;0.20;;
16516;SDS011;8371;52.272;9.746;2023-08-01T02:08:02;0.20;;;0.20;;
16516;SDS011;8371;52.272;9.746;2023-08-01T02:10:30;0.10;;;0.10;;
16516;SDS011;8371;52.272;9.746;2023-08-01T02:12:55;0.90;;;0.17;;
16516;SDS011;8371;52.272;9.746;2023-08-01T02:15:21;0.10;;;0.10;;
16516;SDS011;8371;52.272;9.746;2023-08-01T02:17:47;1.17;;;0.10;;
16516;SDS011;8371;52.272;9.746;2023-08-01T02:20:13;0.10;;;0.10;;
16516;SDS011;8371;52.272;9.746;2023-08-01T02:22:38;1.20;;;0.13;;
16516;SDS011;8371;52.272;9.746;2023-08-01T02:25:04;0.20;;;0.20;;
16516;SDS011;8371;52.272;9.746;2023-08-01T02:27:30;2.67;;;0.10;;
16516;SDS011;8371;52.272;9.746;2023-08-01T02:29:56;0.07;;;0.07;;
16516;SDS011;8371;52.272;9.746;2023-08-01T02:32:22;0.00;;;0.00;;
16516;SDS011;8371;52.272;9.746;2023-08-01T02:34:47;0.00;;;0.00;;
16516;SDS011;8371;52.272;9.746;2023-08-01T02:37:13;0.00;;;0.00;;
16516;SDS011;8371;52.272;9.746;2023-08-01T02:39:39;0.10;;;0.10;;
16516;SDS011;8371;52.272;9.746;2023-08-01T02:42:04;1.80;;;0.10;;
16516;SDS011;8371;52.272;9.746;2023-08-01T02:44:30;0.30;;;0.10;;
16516;SDS011;8371;52.272;9.746;2023-08-01T02:46:56;0.30;;;0.00;;
16516;SDS011;8371;52.272;9.746;2023-08-01T02:49:22;0.63;;;0.10;;
16516;SDS011;8371;52.272;9.746;2023-08-01T02:51:47;0.10;;;0.10;;
16516;SDS011;8371;52.272;9.746;2023-08-01T02:54:13;0.60;;;0.00;;
16516;SDS011;8371;52.272;9.746;2023-08-01T02:56:39;0.20;;;0.00;;
16516;SDS011;8371;52.272;9.746;2023-08-01T02:59:09;0.00;;;0.00;;
16516;SDS011;8371;52.272;9.746;2023-08-01T03:01:37;0.10;;;0.10;;
16516;SDS011;8371;52.272;9.746;2023-08-01T03:04:03;0.00;;;0.00;;
16516;SDS011;8371;52.272;9.746;2023-08-01T03:06:30;0.00;;;0.00;;
16516;SDS011;8371;52.272;9.746;2023-08-01T03:08:57;0.60;;;0.60;;
16516;SDS011;8371;52.272;9.746;2023-08-01T03:11:22;0.10;;;0.10;;
16516;SDS011;8371;52.272;9.746;2023-08-01T03:13:48;3.40;;;0.20;;
16516;SDS011;8371;52.272;9.746;2023-08-01T03:16:14;1.37;;;0.07;;
16516;SDS011;8371;52.272;9.746;2023-08-01T03:18:39;0.10;;;0.10;;
16516;SDS011;8371;52.272;9.746;2023-08-01T03:21:05;0.00;;;0.00;;
16516;SDS011;8371;52.272;9.746;2023-08-01T03:23:31;2.07;;;0.10;;
16516;SDS011;8371;52.272;9.746;2023-08-01T03:25:57;0.10;;;0.10;;
16516;SDS011;8371;52.272;9.746;2023-08-01T03:28:23;0.10;;;0.10;;
16516;SDS011;8371;52.272;9.746;2023-08-01T03:30:49;1.07;;;0.10;;
16516;SDS011;8371;52.272;9.746;2023-08-01T03:33:16;0.97;;;0.00;;
16516;SDS011;8371;52.272;9.746;2023-08-01T03:35:41;0.00;;;0.00;;
16516;SDS011;8371;52.272;9.746;2023-08-01T03:38:07;1.17;;;0.00;;
16516;SDS011;8371;52.272;9.746;2023-08-01T03:40:33;0.00;;;0.00;;
16516;SDS011;8371;52.272;9.746;2023-08-01T03:42:59;0.10;;;0.03;;
16516;SDS011;8371;52.272;9.746;2023-08-01T03:45:24;3.40;;;0.00;;
16516;SDS011;8371;52.272;9.746;2023-08-01T03:47:50;0.20;;;0.10;;
16516;SDS011;8371;52.272;9.746;2023-08-01T03:50:16;0.70;;;0.10;;
16516;SDS011;8371;52.272;9.746;2023-08-01T03:52:42;0.20;;;0.17;;
16516;SDS011;8371;52.272;9.746;2023-08-01T03:55:07;0.10;;;0.10;;
16516;SDS011;8371;52.272;9.746;2023-08-01T03:57:34;0.10;;;0.10;;
16516;SDS011;8371;52.272;9.746;2023-08-01T04:00:00;0.10;;;0.10;;
16516;SDS011;8371;52.272;9.746;2023-08-01T04:02:26;0.00;;;0.00;;
16516;SDS011;8371;52.272;9.746;2023-08-01T04:04:51;0.20;;;0.20;;
16516;SDS011;8371;52.272;9.746;2023-08-01T04:07:18;4.27;;;0.10;;
16516;SDS011;8371;52.272;9.746;2023-08-01T04:09:44;0.13;;;0.13;;
16516;SDS011;8371;52.272;9.746;2023-08-01T04:12:10;0.20;;;0.20;;
16516;SDS011;8371;52.272;9.746;2023-08-01T04:14:35;0.00;;;0.00;;
16516;SDS011;8371;52.272;9.746;2023-08-01T04:17:01;0.33;;;0.20;;
16516;SDS011;8371;52.272;9.746;2023-08-01T04:19:27;0.10;;;0.10;;
16516;SDS011;8371;52.272;9.746;2023-08-01T04:21:52;0.10;;;0.10;;
16516;SDS011;8371;52.272;9.746;2023-08-01T04:24:18;0.10;;;0.10;;
16516;SDS011;8371;52.272;9.746;2023-08-01T04:26:44;0.30;;;0.30;;
16516;SDS011;8371;52.272;9.746;2023-08-01T04:29:09;0.10;;;0.10;;
16516;SDS011;8371;52.272;9.746;2023-08-01T04:31:35;0.00;;;0.00;;
16516;SDS011;8371;52.272;9.746;2023-08-01T04:34:01;0.00;;;0.00;;
16516;SDS011;8371;52.272;9.746;2023-08-01T04:36:26;3.57;;;0.20;;
16516;SDS011;8371;52.272;9.746;2023-08-01T04:38:52;0.10;;;0.10;;
16516;SDS011;8371;52.272;9.746;2023-08-01T04:41:18;0.10;;;0.10;;
16516;SDS011;8371;52.272;9.746;2023-08-01T04:43:43;0.10;;;0.10;;
16516;SDS011;8371;52.272;9.746;2023-08-01T04:46:09;0.10;;;0.10;;
16516;SDS011;8371;52.272;9.746;2023-08-01T04:48:35;0.10;;;0.10;;
16516;SDS011;8371;52.272;9.746;2023-08-01T04:51:00;1.20;;;0.20;;
16516;SDS011;8371;52.272;9.746;2023-08-01T04:53:26;0.30;;;0.30;;
16516;SDS011;8371;52.272;9.746;2023-08-01T04:55:52;0.10;;;0.10;;
16516;SDS011;8371;52.272;9.746;2023-08-01T04:58:17;0.20;;;0.20;;
16516;SDS011;8371;52.272;9.746;2023-08-01T05:00:43;0.20;;;0.20;;
16516;SDS011;8371;52.272;9.746;2023-08-01T05:03:09;0.10;;;0.10;;
16516;SDS011;8371;52.272;9.746;2023-08-01T05:05:34;0.00;;;0.00;;
16516;SDS011;8371;52.272;9.746;2023-08-01T05:08:00;0.10;;;0.10;;
16516;SDS011;8371;52.272;9.746;2023-08-01T05:10:26;0.30;;;0.30;;
16516;SDS011;8371;52.272;9.746;2023-08-01T05:12:51;0.10;;;0.10;;
16516;SDS011;8371;52.272;9.746;2023-08-01T05:15:17;0.23;;;0.23;;
16516;SDS011;8371;52.272;9.746;2023-08-01T05:17:43;0.30;;;0.27;;
16516;SDS011;8371;52.272;9.746;2023-08-01T05:20:09;0.40;;;0.40;;
16516;SDS011;8371;52.272;9.746;2023-08-01T05:22:35;0.27;;;0.27;;
16516;SDS011;8371;52.272;9.746;2023-08-01T05:25:01;0.20;;;0.20;;
16516;SDS011;8371;52.272;9.746;2023-08-01T05:27:27;0.10;;;0.10;;
16516;SDS011;8371;52.272;9.746;2023-08-01T05:29:53;2.07;;;0.30;;
16516;SDS011;8371;52.272;9.746;2023-08-01T05:32:18;0.00;;;0.00;;
16516;SDS011;8371;52.272;9.746;2023-08-01T05:34:44;0.10;;;0.10;;
16516;SDS011;8371;52.272;9.746;2023-08-01T05:37:09;0.93;;;0.10;;
16516;SDS011;8371;52.272;9.746;2023-08-01T05:39:35;0.20;;;0.20;;
16516;SDS011;8371;52.272;9.746;2023-08-01T05:42:01;0.70;;;0.40;;
16516;SDS011;8371;52.272;9.746;2023-08-01T05:44:26;0.40;;;0.40;;
16516;SDS011;8371;52.272;9.746;2023-08-01T05:46:52;1.30;;;0.30;;
16516;SDS011;8371;52.272;9.746;2023-08-01T05:49:18;0.30;;;0.30;;
16516;SDS011;8371;52.272;9.746;2023-08-01T05:51:43;0.20;;;0.20;;
16516;SDS011;8371;52.272;9.746;2023-08-01T05:54:09;0.40;;;0.40;;
16516;SDS011;8371;52.272;9.746;2023-08-01T05:56:35;0.40;;;0.40;;
16516;SDS011;8371;52.272;9.746;2023-08-01T05:59:01;0.30;;;0.30;;
16516;SDS011;8371;52.272;9.746;2023-08-01T06:01:26;0.33;;;0.33;;
16516;SDS011;8371;52.272;9.746;2023-08-01T06:03:52;0.27;;;0.27;;
16516;SDS011;8371;52.272;9.746;2023-08-01T06:06:18;0.27;;;0.27;;
16516;SDS011;8371;52.272;9.746;2023-08-01T06:08:43;0.30;;;0.30;;
16516;SDS011;8371;52.272;9.746;2023-08-01T06:11:09;0.47;;;0.20;;
16516;SDS011;8371;52.272;9.746;2023-08-01T06:13:35;1.97;;;0.47;;
16516;SDS011;8371;52.272;9.746;2023-08-01T06:16:00;0.40;;;0.40;;
16516;SDS011;8371;52.272;9.746;2023-08-01T06:18:26;0.70;;;0.70;;
16516;SDS011;8371;52.272;9.746;2023-08-01T06:20:52;0.60;;;0.60;;
16516;SDS011;8371;52.272;9.746;2023-08-01T06:23:17;0.60;;;0.60;;
16516;SDS011;8371;52.272;9.746;2023-08-01T06:25:44;0.90;;;0.90;;
16516;SDS011;8371;52.272;9.746;2023-08-01T06:28:09;0.50;;;0.50;;
16516;SDS011;8371;52.272;9.746;2023-08-01T06:30:35;0.83;;;0.83;;
16516;SDS011;8371;52.272;9.746;2023-08-01T06:33:01;0.73;;;0.73;;
16516;SDS011;8371;52.272;9.746;2023-08-01T06:35:26;0.80;;;0.80;;
16516;SDS011;8371;52.272;9.746;2023-08-01T06:37:52;0.80;;;0.80;;
16516;SDS011;8371;52.272;9.746;2023-08-01T06:40:18;0.90;;;0.90;;
16516;SDS011;8371;52.272;9.746;2023-08-01T06:42:43;1.63;;;1.03;;
16516;SDS011;8371;52.272;9.746;2023-08-01T06:45:09;0.87;;;0.87;;
16516;SDS011;8371;52.272;9.746;2023-08-01T06:47:35;0.80;;;0.80;;
16516;SDS011;8371;52.272;9.746;2023-08-01T06:50:00;0.90;;;0.90;;
16516;SDS011;8371;52.272;9.746;2023-08-01T06:52:26;0.80;;;0.80;;
16516;SDS011;8371;52.272;9.746;2023-08-01T06:54:52;0.70;;;0.70;;
16516;SDS011;8371;52.272;9.746;2023-08-01T06:57:17;0.90;;;0.90;;
16516;SDS011;8371;52.272;9.746;2023-08-01T06:59:43;0.90;;;0.90;;
16516;SDS011;8371;52.272;9.746;2023-08-01T07:02:09;0.80;;;0.80;;
16516;SDS011;8371;52.272;9.746;2023-08-01T07:04:34;0.93;;;0.80;;
16516;SDS011;8371;52.272;9.746;2023-08-01T07:07:00;0.90;;;0.90;;
16516;SDS011;8371;52.272;9.746;2023-08-01T07:09:26;0.83;;;0.83;;
16516;SDS011;8371;52.272;9.746;2023-08-01T07:11:51;1.03;;;0.93;;
16516;SDS011;8371;52.272;9.746;2023-08-01T07:14:17;1.47;;;1.37;;
16516;SDS011;8371;52.272;9.746;2023-08-01T07:16:43;1.50;;;1.40;;
16516;SDS011;8371;52.272;9.746;2023-08-01T07:19:08;1.20;;;1.20;;
16516;SDS011;8371;52.272;9.746;2023-08-01T07:21:34;1.60;;;1.60;;
16516;SDS011;8371;52.272;9.746;2023-08-01T07:24:00;1.60;;;1.50;;
16516;SDS011;8371;52.272;9.746;2023-08-01T07:26:25;1.40;;;1.40;;
16516;SDS011;8371;52.272;9.746;2023-08-01T07:28:53;1.80;;;1.70;;
16516;SDS011;8371;52.272;9.746;2023-08-01T07:31:19;1.67;;;1.60;;
16516;SDS011;8371;52.272;9.746;2023-08-01T07:33:44;1.67;;;1.67;;
16516;SDS011;8371;52.272;9.746;2023-08-01T07:36:10;1.93;;;1.50;;
16516;SDS011;8371;52.272;9.746;2023-08-01T07:38:36;1.83;;;1.73;;
16516;SDS011;8371;52.272;9.746;2023-08-01T07:41:02;2.07;;;1.57;;
16516;SDS011;8371;52.272;9.746;2023-08-01T07:43:29;1.70;;;1.60;;
16516;SDS011;8371;52.272;9.746;2023-08-01T07:45:56;2.30;;;1.90;;
16516;SDS011;8371;52.272;9.746;2023-08-01T07:48:22;1.80;;;1.70;;
16516;SDS011;8371;52.272;9.746;2023-08-01T07:50:48;1.63;;;1.57;;
16516;SDS011;8371;52.272;9.746;2023-08-01T07:53:13;1.70;;;1.60;;
16516;SDS011;8371;52.272;9.746;2023-08-01T07:55:39;2.10;;;1.30;;
16516;SDS011;8371;52.272;9.746;2023-08-01T07:58:05;1.70;;;1.60;;
16516;SDS011;8371;52.272;9.746;2023-08-01T08:00:30;1.40;;;1.40;;
16516;SDS011;8371;52.272;9.746;2023-08-01T08:02:56;1.80;;;1.70;;
16516;SDS011;8371;52.272;9.746;2023-08-01T08:05:22;2.13;;;1.97;;
16516;SDS011;8371;52.272;9.746;2023-08-01T08:07:48;1.50;;;1.50;;
16516;SDS011;8371;52.272;9.746;2023-08-01T08:10:13;2.80;;;1.93;;
16516;SDS011;8371;52.272;9.746;2023-08-01T08:12:40;2.40;;;2.30;;
16516;SDS011;8371;52.272;9.746;2023-08-01T08:15:06;7.70;;;1.90;;
16516;SDS011;8371;52.272;9.746;2023-08-01T08:17:32;2.90;;;2.00;;
16516;SDS011;8371;52.272;9.746;2023-08-01T08:19:58;2.43;;;1.97;;
16516;SDS011;8371;52.272;9.746;2023-08-01T08:22:24;2.30;;;1.80;;
16516;SDS011;8371;52.272;9.746;2023-08-01T08:24:49;2.53;;;1.80;;
16516;SDS011;8371;52.272;9.746;2023-08-01T08:27:15;1.80;;;1.70;;
16516;SDS011;8371;52.272;9.746;2023-08-01T08:29:41;1.80;;;1.70;;
16516;SDS011;8371;52.272;9.746;2023-08-01T08:32:07;2.60;;;1.90;;
16516;SDS011;8371;52.272;9.746;2023-08-01T08:34:32;2.07;;;1.97;;
16516;SDS011;8371;52.272;9.746;2023-08-01T08:36:58;1.50;;;1.43;;
16516;SDS011;8371;52.272;9.746;2023-08-01T08:39:24;2.30;;;2.20;;
16516;SDS011;8371;52.272;9.746;2023-08-01T08:41:51;2.47;;;2.27;;
16516;SDS011;8371;52.272;9.746;2023-08-01T08:44:18;1.90;;;1.80;;
16516;SDS011;8371;52.272;9.746;2023-08-01T08:46:53;1.80;;;1.70;;
16516;SDS011;8371;52.272;9.746;2023-08-01T08:49:19;2.20;;;2.10;;
16516;SDS011;8371;52.272;9.746;2023-08-01T08:51:47;4.93;;;1.57;;
16516;SDS011;8371;52.272;9.746;2023-08-01T08:54:15;2.10;;;1.50;;
16516;SDS011;8371;52.272;9.746;2023-08-01T08:56:41;1.93;;;1.80;;
16516;SDS011;8371;52.272;9.746;2023-08-01T08:59:08;1.40;;;1.40;;
16516;SDS011;8371;52.272;9.746;2023-08-01T09:01:35;1.40;;;1.40;;
16516;SDS011;8371;52.272;9.746;2023-08-01T09:04:02;1.80;;;1.70;;
16516;SDS011;8371;52.272;9.746;2023-08-01T09:06:30;1.60;;;1.50;;
16516;SDS011;8371;52.272;9.746;2023-08-01T09:09:11;1.23;;;1.23;;
16516;SDS011;8371;52.272;9.746;2023-08-01T09:11:39;1.70;;;1.60;;
16516;SDS011;8371;52.272;9.746;2023-08-01T09:14:07;1.80;;;1.73;;
16516;SDS011;8371;52.272;9.746;2023-08-01T09:16:33;1.60;;;1.50;;
16516;SDS011;8371;52.272;9.746;2023-08-01T09:18:59;1.30;;;1.30;;
16516;SDS011;8371;52.272;9.746;2023-08-01T09:21:24;1.13;;;1.13;;
16516;SDS011;8371;52.272;9.746;2023-08-01T09:23:50;1.20;;;1.20;;
16516;SDS011;8371;52.272;9.746;2023-08-01T09:26:18;1.37;;;1.17;;
16516;SDS011;8371;52.272;9.746;2023-08-01T09:28:57;1.40;;;1.30;;
16516;SDS011;8371;52.272;9.746;2023-08-01T09:31:31;1.10;;;1.10;;
16516;SDS011;8371;52.272;9.746;2023-08-01T09:33:54;1.40;;;1.30;;
16516;SDS011;8371;52.272;9.746;2023-08-01T09:36:20;1.43;;;1.30;;
16516;SDS011;8371;52.272;9.746;2023-08-01T09:38:47;1.10;;;1.10;;
16516;SDS011;8371;52.272;9.746;2023-08-01T09:41:17;1.33;;;1.30;;
16516;SDS011;8371;52.272;9.746;2023-08-01T09:43:44;1.20;;;1.10;;
16516;SDS011;8371;52.272;9.746;2023-08-01T09:46:11;1.00;;;1.00;;
16516;SDS011;8371;52.272;9.746;2023-08-01T09:48:37;2.00;;;1.47;;
16516;SDS011;8371;52.272;9.746;2023-08-01T09:51:08;1.27;;;1.27;;
16516;SDS011;8371;52.272;9.746;2023-08-01T09:53:36;1.30;;;1.30;;
16516;SDS011;8371;52.272;9.746;2023-08-01T09:56:03;0.90;;;0.90;;
16516;SDS011;8371;52.272;9.746;2023-08-01T09:58:33;0.80;;;0.80;;
16516;SDS011;8371;52.272;9.746;2023-08-01T10:01:00;1.43;;;1.43;;
16516;SDS011;8371;52.272;9.746;2023-08-01T10:03:27;0.90;;;0.90;;
16516;SDS011;8371;52.272;9.746;2023-08-01T10:05:54;1.20;;;1.20;;
16516;SDS011;8371;52.272;9.746;2023-08-01T10:08:21;1.40;;;1.30;;
16516;SDS011;8371;52.272;9.746;2023-08-01T10:10:47;1.07;;;1.07;;
16516;SDS011;8371;52.272;9.746;2023-08-01T10:13:13;1.20;;;1.20;;
16516;SDS011;8371;52.272;9.746;2023-08-01T10:15:40;1.10;;;1.10;;
16516;SDS011;8371;52.272;9.746;2023-08-01T10:18:06;1.17;;;1.17;;
16516;SDS011;8371;52.272;9.746;2023-08-01T10:20:35;1.90;;;1.33;;
16516;SDS011;8371;52.272;9.746;2023-08-01T10:23:03;1.27;;;1.27;;
16516;SDS011;8371;52.272;9.746;2023-08-01T10:25:30;1.73;;;1.23;;
16516;SDS011;8371;52.272;9.746;2023-08-01T10:27:57;1.20;;;1.20;;
16516;SDS011;8371;52.272;9.746;2023-08-01T10:30:26;1.40;;;1.30;;
16516;SDS011;8371;52.272;9.746;2023-08-01T10:32:54;1.30;;;1.30;;
16516;SDS011;8371;52.272;9.746;2023-08-01T10:35:35;1.57;;;1.03;;
16516;SDS011;8371;52.272;9.746;2023-08-01T10:40:38;1.13;;;1.10;;
16516;SDS011;8371;52.272;9.746;2023-08-01T10:43:18;1.17;;;1.17;;
16516;SDS011;8371;52.272;9.746;2023-08-01T10:45:47;2.00;;;1.33;;
16516;SDS011;8371;52.272;9.746;2023-08-01T10:48:12;1.10;;;1.10;;
16516;SDS011;8371;52.272;9.746;2023-08-01T10:50:39;1.03;;;1.03;;
16516;SDS011;8371;52.272;9.746;2023-08-01T10:53:06;1.10;;;1.10;;
16516;SDS011;8371;52.272;9.746;2023-08-01T10:58:11;1.03;;;1.03;;
16516;SDS011;8371;52.272;9.746;2023-08-01T11:00:38;1.50;;;1.07;;
16516;SDS011;8371;52.272;9.746;2023-08-01T11:03:04;1.00;;;1.00;;
16516;SDS011;8371;52.272;9.746;2023-08-01T11:05:30;1.27;;;1.20;;
16516;SDS011;8371;52.272;9.746;2023-08-01T11:07:56;2.00;;;1.20;;
16516;SDS011;8371;52.272;9.746;2023-08-01T11:10:24;1.10;;;1.10;;
16516;SDS011;8371;52.272;9.746;2023-08-01T11:12:51;1.20;;;1.20;;
16516;SDS011;8371;52.272;9.746;2023-08-01T11:15:18;1.17;;;1.17;;
16516;SDS011;8371;52.272;9.746;2023-08-01T11:17:48;1.37;;;1.10;;
16516;SDS011;8371;52.272;9.746;2023-08-01T11:20:16;0.93;;;0.93;;
16516;SDS011;8371;52.272;9.746;2023-08-01T11:23:01;1.00;;;1.00;;
16516;SDS011;8371;52.272;9.746;2023-08-01T11:25:19;0.97;;;0.97;;
16516;SDS011;8371;52.272;9.746;2023-08-01T11:27:45;1.20;;;1.20;;
16516;SDS011;8371;52.272;9.746;2023-08-01T11:30:11;1.10;;;1.10;;
16516;SDS011;8371;52.272;9.746;2023-08-01T11:32:38;1.00;;;1.00;;
16516;SDS011;8371;52.272;9.746;2023-08-01T11:35:05;1.20;;;1.10;;
16516;SDS011;8371;52.272;9.746;2023-08-01T11:37:31;1.37;;;1.30;;
16516;SDS011;8371;52.272;9.746;2023-08-01T11:39:58;1.30;;;1.20;;
16516;SDS011;8371;52.272;9.746;2023-08-01T11:42:24;1.10;;;1.10;;
16516;SDS011;8371;52.272;9.746;2023-08-01T11:44:50;1.13;;;1.13;;
16516;SDS011;8371;52.272;9.746;2023-08-01T11:47:16;1.20;;;1.20;;
16516;SDS011;8371;52.272;9.746;2023-08-01T11:49:46;0.90;;;0.90;;
16516;SDS011;8371;52.272;9.746;2023-08-01T11:52:23;0.97;;;0.97;;
16516;SDS011;8371;52.272;9.746;2023-08-01T11:54:50;0.97;;;0.97;;
16516;SDS011;8371;52.272;9.746;2023-08-01T11:57:16;1.67;;;1.10;;
16516;SDS011;8371;52.272;9.746;2023-08-01T11:59:52;1.27;;;1.27;;
16516;SDS011;8371;52.272;9.746;2023-08-01T12:02:29;1.20;;;1.10;;
16516;SDS011;8371;52.272;9.746;2023-08-01T12:04:52;1.37;;;1.13;;
16516;SDS011;8371;52.272;9.746;2023-08-01T12:07:19;1.00;;;1.00;;
16516;SDS011;8371;52.272;9.746;2023-08-01T12:09:54;1.27;;;1.20;;
16516;SDS011;8371;52.272;9.746;2023-08-01T12:12:22;1.20;;;1.20;;
16516;SDS011;8371;52.272;9.746;2023-08-01T12:14:47;0.90;;;0.90;;
16516;SDS011;8371;52.272;9.746;2023-08-01T12:17:13;1.30;;;1.30;;
16516;SDS011;8371;52.272;9.746;2023-08-01T12:19:39;1.03;;;1.03;;
16516;SDS011;8371;52.272;9.746;2023-08-01T12:22:05;1.03;;;1.03;;
16516;SDS011;8371;52.272;9.746;2023-08-01T12:24:31;1.10;;;1.10;;
16516;SDS011;8371;52.272;9.746;2023-08-01T12:26:58;1.47;;;1.40;;
16516;SDS011;8371;52.272;9.746;2023-08-01T12:29:24;1.37;;;1.27;;
16516;SDS011;8371;52.272;9.746;2023-08-01T12:31:49;1.13;;;1.13;;
16516;SDS011;8371;52.272;9.746;2023-08-01T12:34:15;3.37;;;1.40;;
16516;SDS011;8371;52.272;9.746;2023-08-01T12:36:41;1.40;;;1.40;;
16516;SDS011;8371;52.272;9.746;2023-08-01T12:39:06;1.70;;;1.60;;
16516;SDS011;8371;52.272;9.746;2023-08-01T12:41:34;2.50;;;1.67;;
16516;SDS011;8371;52.272;9.746;2023-08-01T12:43:59;1.50;;;1.50;;
16516;SDS011;8371;52.272;9.746;2023-08-01T12:46:25;1.20;;;1.20;;
16516;SDS011;8371;52.272;9.746;2023-08-01T12:48:51;1.33;;;1.33;;
16516;SDS011;8371;52.272;9.746;2023-08-01T12:51:17;1.07;;;1.07;;
16516;SDS011;8371;52.272;9.746;2023-08-01T12:53:42;0.97;;;0.97;;
16516;SDS011;8371;52.272;9.746;2023-08-01T12:56:08;1.63;;;1.53;;
16516;SDS011;8371;52.272;9.746;2023-08-01T12:58:34;1.27;;;1.27;;
16516;SDS011;8371;52.272;9.746;2023-08-01T13:01:01;1.10;;;1.10;;
16516;SDS011;8371;52.272;9.746;2023-08-01T13:03:27;1.33;;;1.27;;
16516;SDS011;8371;52.272;9.746;2023-08-01T13:05:53;1.10;;;1.10;;
16516;SDS011;8371;52.272;9.746;2023-08-01T13:08:19;1.10;;;1.00;;
16516;SDS011;8371;52.272;9.746;2023-08-01T13:10:44;0.87;;;0.87;;
16516;SDS011;8371;52.272;9.746;2023-08-01T13:13:11;0.97;;;0.97;;
16516;SDS011;8371;52.272;9.746;2023-08-01T13:15:37;1.20;;;1.10;;
16516;SDS011;8371;52.272;9.746;2023-08-01T13:18:02;1.43;;;1.00;;
16516;SDS011;8371;52.272;9.746;2023-08-01T13:20:28;1.00;;;1.00;;
16516;SDS011;8371;52.272;9.746;2023-08-01T13:22:54;1.30;;;1.30;;
16516;SDS011;8371;52.272;9.746;2023-08-01T13:25:19;1.10;;;1.10;;
16516;SDS011;8371;52.272;9.746;2023-08-01T13:27:45;1.20;;;1.20;;
16516;SDS011;8371;52.272;9.746;2023-08-01T13:30:11;0.93;;;0.93;;
16516;SDS011;8371;52.272;9.746;2023-08-01T13:32:41;2.20;;;1.10;;
16516;SDS011;8371;52.272;9.746;2023-08-01T13:35:07;0.57;;;0.57;;
16516;SDS011;8371;52.272;9.746;2023-08-01T13:37:33;0.80;;;0.80;;
16516;SDS011;8371;52.272;9.746;2023-08-01T13:39:58;0.70;;;0.70;;
16516;SDS011;8371;52.272;9.746;2023-08-01T13:42:26;1.33;;;0.77;;
16516;SDS011;8371;52.272;9.746;2023-08-01T13:44:53;1.00;;;0.90;;
16516;SDS011;8371;52.272;9.746;2023-08-01T13:47:19;0.80;;;0.80;;
16516;SDS011;8371;52.272;9.746;2023-08-01T13:49:45;0.67;;;0.67;;
16516;SDS011;8371;52.272;9.746;2023-08-01T13:52:11;0.90;;;0.90;;
16516;SDS011;8371;52.272;9.746;2023-08-01T13:54:36;1.07;;;1.00;;
16516;SDS011;8371;52.272;9.746;2023-08-01T13:57:02;0.77;;;0.77;;
16516;SDS011;8371;52.272;9.746;2023-08-01T13:59:28;0.80;;;0.80;;
16516;SDS011;8371;52.272;9.746;2023-08-01T14:01:54;3.27;;;1.17;;
16516;SDS011;8371;52.272;9.746;2023-08-01T14:04:20;0.47;;;0.47;;
16516;SDS011;8371;52.272;9.746;2023-08-01T14:06:46;0.67;;;0.67;;
16516;SDS011;8371;52.272;9.746;2023-08-01T14:09:11;0.60;;;0.60;;
16516;SDS011;8371;52.272;9.746;2023-08-01T14:11:38;0.60;;;0.60;;
16516;SDS011;8371;52.272;9.746;2023-08-01T14:14:04;0.80;;;0.80;;
16516;SDS011;8371;52.272;9.746;2023-08-01T14:16:30;0.80;;;0.80;;
16516;SDS011;8371;52.272;9.746;2023-08-01T14:18:56;0.80;;;0.80;;
16516;SDS011;8371;52.272;9.746;2023-08-01T14:21:23;0.70;;;0.70;;
16516;SDS011;8371;52.272;9.746;2023-08-01T14:23:49;1.00;;;0.90;;
16516;SDS011;8371;52.272;9.746;2023-08-01T14:26:14;0.63;;;0.63;;
16516;SDS011;8371;52.272;9.746;2023-08-01T14:28:40;0.77;;;0.77;;
16516;SDS011;8371;52.272;9.746;2023-08-01T14:31:06;0.53;;;0.53;;
16516;SDS011;8371;52.272;9.746;2023-08-01T14:33:33;0.80;;;0.80;;
16516;SDS011;8371;52.272;9.746;2023-08-01T14:35:59;0.47;;;0.47;;
16516;SDS011;8371;52.272;9.746;2023-08-01T14:38:25;0.73;;;0.73;;
16516;SDS011;8371;52.272;9.746;2023-08-01T14:40:54;0.60;;;0.60;;
16516;SDS011;8371;52.272;9.746;2023-08-01T14:43:19;2.43;;;0.70;;
16516;SDS011;8371;52.272;9.746;2023-08-01T14:45:45;0.60;;;0.53;;
16516;SDS011;8371;52.272;9.746;2023-08-01T14:48:11;0.70;;;0.70;;
16516;SDS011;8371;52.272;9.746;2023-08-01T14:50:37;0.60;;;0.60;;
16516;SDS011;8371;52.272;9.746;2023-08-01T14:53:03;0.60;;;0.60;;
16516;SDS011;8371;52.272;9.746;2023-08-01T14:55:31;0.60;;;0.60;;
16516;SDS011;8371;52.272;9.746;2023-08-01T14:57:57;0.67;;;0.67;;
16516;SDS011;8371;52.272;9.746;2023-08-01T15:00:23;0.63;;;0.60;;